Time;durP1;ratioP1;P1;durP2;ratioP2;P2;SDS_P1;SDS_P2;PMS_P1;PMS_P2;Temp;Humidity;BMP_temperature;BMP_pressure;BME280_temperature;BME280_humidity;BME280_pressure;Samples;Min_cycle;Max_cycle;Signal;HPM_P1;HPM_P2
2020/12/30 00:00:01;;;;;;;28.27;16.17;;;3.40;99.90;;;;;;5095091;28;20031;-76
2020/12/30 00:02:30;;;;;;;28.85;16.00;;;3.30;99.90;;;;;;5094805;28;20031;-76
2020/12/30 00:04:57;;;;;;;32.03;16.73;;;3.40;99.90;;;;;;5094798;28;20095;-76
2020/12/30 00:07:23;;;;;;;26.58;15.15;;;3.40;99.90;;;;;;5094023;28;20099;-76
2020/12/30 00:09:49;;;;;;;28.42;15.63;;;3.40;99.90;;;;;;5095075;28;20061;-75
2020/12/30 00:12:16;;;;;;;28.02;15.30;;;3.40;99.90;;;;;;5094749;28;20028;-75
2020/12/30 00:14:42;;;;;;;32.65;16.13;;;3.40;99.90;;;;;;5095020;28;20457;-76
2020/12/30 00:17:07;;;;;;;29.52;15.45;;;3.40;99.90;;;;;;5094974;28;20058;-76
2020/12/30 00:19:33;;;;;;;29.67;14.57;;;3.40;99.90;;;;;;5093310;28;20032;-76
2020/12/30 00:21:59;;;;;;;26.92;14.43;;;3.30;99.90;;;;;;5094389;28;20020;-76
2020/12/30 00:24:24;;;;;;;24.63;12.88;;;3.20;99.90;;;;;;5094415;28;20431;-76
2020/12/30 00:26:50;;;;;;;25.77;12.88;;;3.20;99.90;;;;;;5094647;28;20035;-76
2020/12/30 00:29:15;;;;;;;25.58;13.20;;;3.10;99.90;;;;;;5094624;28;20024;-75
2020/12/30 00:31:41;;;;;;;23.63;13.45;;;3.10;99.90;;;;;;5094603;28;20035;-76
2020/12/30 00:34:06;;;;;;;26.65;14.13;;;3.00;99.90;;;;;;5093986;28;20035;-76
2020/12/30 00:36:38;;;;;;;26.67;13.82;;;2.80;99.90;;;;;;5094509;28;20027;-76
2020/12/30 00:39:04;;;;;;;26.75;14.60;;;2.70;99.90;;;;;;5094513;28;20020;-76
2020/12/30 00:41:30;;;;;;;25.02;13.48;;;2.60;99.90;;;;;;5093752;28;20073;-76
2020/12/30 00:43:55;;;;;;;25.50;14.05;;;2.50;99.90;;;;;;5092591;28;20020;-75
2020/12/30 00:46:21;;;;;;;29.58;14.07;;;2.40;99.90;;;;;;5094356;28;20031;-75
2020/12/30 00:48:46;;;;;;;28.83;14.77;;;2.40;99.90;;;;;;5094315;28;20024;-76
2020/12/30 00:51:13;;;;;;;31.73;15.50;;;2.30;99.90;;;;;;5093045;28;20021;-75
2020/12/30 00:53:39;;;;;;;30.98;15.35;;;2.20;99.90;;;;;;5092425;28;20437;-75
2020/12/30 00:56:07;;;;;;;28.02;15.23;;;2.10;99.90;;;;;;5093119;28;20024;-76
2020/12/30 00:58:34;;;;;;;30.50;16.10;;;2.10;99.90;;;;;;5092800;28;20361;-76
2020/12/30 01:00:59;;;;;;;26.52;14.95;;;2.00;99.90;;;;;;5092947;28;20054;-75
2020/12/30 01:03:25;;;;;;;29.65;15.32;;;2.00;99.90;;;;;;5093517;28;20024;-75
2020/12/30 01:05:50;;;;;;;26.58;13.75;;;2.10;99.90;;;;;;5093023;28;20028;-75
2020/12/30 01:08:16;;;;;;;29.80;14.30;;;2.10;99.90;;;;;;5094074;28;20033;-76
2020/12/30 01:10:42;;;;;;;27.67;14.55;;;2.10;99.90;;;;;;5093498;28;20108;-75
2020/12/30 01:13:07;;;;;;;29.45;15.35;;;2.00;99.90;;;;;;5093492;28;20055;-75
2020/12/30 01:15:33;;;;;;;30.80;14.48;;;1.90;99.90;;;;;;5094060;28;20028;-76
2020/12/30 01:18:00;;;;;;;25.08;13.70;;;1.80;99.90;;;;;;5094020;28;20414;-75
2020/12/30 01:20:25;;;;;;;29.08;15.40;;;1.80;99.90;;;;;;5093994;28;20039;-75
2020/12/30 01:22:51;;;;;;;27.70;14.88;;;1.80;99.90;;;;;;5093348;28;20028;-75
2020/12/30 01:25:16;;;;;;;25.35;14.43;;;1.60;99.90;;;;;;5093631;28;20020;-75
2020/12/30 01:27:42;;;;;;;27.52;15.00;;;1.40;99.90;;;;;;5092464;28;20027;-75
2020/12/30 01:30:07;;;;;;;35.05;14.23;;;1.30;99.90;;;;;;5093881;28;20500;-75
2020/12/30 01:32:33;;;;;;;25.55;14.95;;;1.10;99.90;;;;;;5092372;28;20028;-75
2020/12/30 01:34:58;;;;;;;25.25;14.57;;;1.10;99.90;;;;;;5093851;28;20024;-75
2020/12/30 01:37:24;;;;;;;32.55;16.55;;;1.00;99.90;;;;;;5093547;28;20024;-75
2020/12/30 01:39:50;;;;;;;31.40;15.65;;;1.10;99.90;;;;;;5091823;28;20044;-75
2020/12/30 01:42:16;;;;;;;32.83;17.08;;;1.20;99.90;;;;;;5093715;28;20024;-75
2020/12/30 01:44:41;;;;;;;34.25;16.15;;;1.20;99.90;;;;;;5093740;28;20016;-75
2020/12/30 01:47:07;;;;;;;30.67;15.27;;;1.20;99.90;;;;;;5093447;28;20024;-75
2020/12/30 01:49:33;;;;;;;31.30;15.63;;;1.30;99.90;;;;;;5093735;28;20027;-75
2020/12/30 01:51:59;;;;;;;30.45;15.10;;;1.40;99.90;;;;;;5093189;28;20024;-75
2020/12/30 01:54:26;;;;;;;31.55;14.75;;;1.30;99.90;;;;;;5093476;28;20036;-75
2020/12/30 01:56:52;;;;;;;30.92;15.27;;;1.30;99.90;;;;;;5093799;28;20024;-75
2020/12/30 01:59:19;;;;;;;28.50;14.32;;;1.30;99.90;;;;;;5093750;28;20028;-75
2020/12/30 02:01:59;;;;;;;33.88;14.25;;;1.30;99.90;;;;;;5093783;28;20086;-75
2020/12/30 02:04:34;;;;;;;26.98;14.88;;;1.10;99.90;;;;;;5093269;28;20099;-75
2020/12/30 02:06:59;;;;;;;30.50;14.13;;;1.00;99.90;;;;;;5093182;28;20044;-75
2020/12/30 02:09:25;;;;;;;25.30;13.50;;;0.90;99.90;;;;;;5093271;28;20059;-75
2020/12/30 02:11:51;;;;;;;27.38;13.75;;;0.80;99.90;;;;;;5093276;28;20438;-75
2020/12/30 02:14:17;;;;;;;31.25;15.00;;;0.70;99.90;;;;;;5093502;28;20020;-75
2020/12/30 02:16:48;;;;;;;27.38;14.00;;;0.90;99.90;;;;;;5093566;28;20024;-75
2020/12/30 02:19:13;;;;;;;25.92;14.90;;;1.00;99.90;;;;;;5096862;28;20381;-75
2020/12/30 02:21:39;;;;;;;26.95;14.20;;;0.90;99.90;;;;;;5097039;28;20113;-75
2020/12/30 02:24:05;;;;;;;31.00;14.90;;;0.90;99.90;;;;;;5096753;28;20024;-75
2020/12/30 02:26:31;;;;;;;29.23;15.40;;;0.70;99.90;;;;;;5097014;28;20453;-75
2020/12/30 02:28:56;;;;;;;28.35;14.57;;;0.70;99.90;;;;;;5096372;28;20036;-75
2020/12/30 02:31:22;;;;;;;30.35;14.65;;;0.60;99.90;;;;;;5095306;28;20020;-74
2020/12/30 02:33:47;;;;;;;26.55;14.23;;;0.50;99.90;;;;;;5096289;28;20031;-75
2020/12/30 02:36:13;;;;;;;33.30;16.05;;;0.50;99.90;;;;;;5096746;28;20146;-75
2020/12/30 02:38:38;;;;;;;33.45;15.50;;;0.50;99.90;;;;;;5096692;28;20024;-75
2020/12/30 02:41:05;;;;;;;31.73;15.82;;;0.60;99.90;;;;;;5095930;28;20052;-75
2020/12/30 02:43:31;;;;;;;31.52;15.43;;;0.50;99.90;;;;;;5096554;28;20027;-75
2020/12/30 02:45:56;;;;;;;31.70;16.13;;;0.60;99.90;;;;;;5096553;28;20020;-75
2020/12/30 02:48:22;;;;;;;31.08;15.98;;;0.60;99.90;;;;;;5095062;28;20063;-75
2020/12/30 02:50:48;;;;;;;35.65;16.48;;;0.60;99.90;;;;;;5096427;28;20020;-74
2020/12/30 02:53:14;;;;;;;30.95;16.15;;;0.70;99.90;;;;;;5096171;28;20077;-75
2020/12/30 02:55:39;;;;;;;29.65;14.90;;;0.70;99.90;;;;;;5096410;28;20500;-75
2020/12/30 02:58:05;;;;;;;34.00;15.52;;;0.70;99.90;;;;;;5096321;28;20483;-75
2020/12/30 03:00:30;;;;;;;27.17;15.27;;;0.70;99.90;;;;;;5096273;28;20484;-75
2020/12/30 03:02:56;;;;;;;32.45;16.25;;;0.60;99.90;;;;;;5096138;28;20059;-75
2020/12/30 03:05:21;;;;;;;32.17;16.33;;;0.60;99.90;;;;;;5095926;28;20024;-75
2020/12/30 03:07:49;;;;;;;34.80;15.68;;;0.50;99.90;;;;;;5095846;28;20118;-75
2020/12/30 03:10:15;;;;;;;34.08;16.17;;;0.60;99.90;;;;;;5094245;28;20024;-75
2020/12/30 03:12:40;;;;;;;29.45;15.00;;;0.50;99.90;;;;;;5096009;28;20092;-75
2020/12/30 03:15:06;;;;;;;28.58;14.75;;;0.40;99.90;;;;;;5095982;28;20035;-75
2020/12/30 03:17:32;;;;;;;29.20;13.52;;;0.30;99.90;;;;;;5095692;28;20068;-75
2020/12/30 03:19:57;;;;;;;31.40;15.13;;;0.30;99.90;;;;;;5095611;28;20115;-75
2020/12/30 03:22:23;;;;;;;30.50;15.55;;;0.20;99.90;;;;;;5095777;28;20035;-75
2020/12/30 03:24:48;;;;;;;30.83;15.45;;;0.20;99.90;;;;;;5095801;28;20020;-75
2020/12/30 03:27:14;;;;;;;30.38;15.93;;;0.20;99.90;;;;;;5094219;28;20055;-75
2020/12/30 03:29:39;;;;;;;30.17;15.55;;;0.10;99.90;;;;;;5093990;28;20013;-75
2020/12/30 03:32:05;;;;;;;36.13;17.00;;;0.10;99.90;;;;;;5095654;28;20083;-75
2020/12/30 03:34:30;;;;;;;33.13;15.82;;;0.10;99.90;;;;;;5095604;28;20031;-75
2020/12/30 03:36:56;;;;;;;34.88;16.50;;;0.10;99.90;;;;;;5095577;28;20024;-74
2020/12/30 03:39:22;;;;;;;35.72;15.98;;;0.10;99.90;;;;;;5095340;28;20024;-75
2020/12/30 03:41:47;;;;;;;29.73;15.35;;;0.10;99.90;;;;;;5095376;28;20027;-75
2020/12/30 03:44:13;;;;;;;33.20;16.75;;;0.10;99.90;;;;;;5094901;28;20061;-74
2020/12/30 03:46:38;;;;;;;30.17;14.98;;;0.10;99.90;;;;;;5095342;28;20028;-75
2020/12/30 03:49:04;;;;;;;38.95;18.67;;;0.10;99.90;;;;;;5095317;28;20047;-75
2020/12/30 03:51:29;;;;;;;33.40;16.70;;;0.10;99.90;;;;;;5095270;28;20027;-75
2020/12/30 03:53:55;;;;;;;33.15;17.10;;;0.10;99.90;;;;;;5095203;28;20069;-75
2020/12/30 03:56:20;;;;;;;38.30;18.65;;;0.10;99.90;;;;;;5094910;28;20016;-75
2020/12/30 03:58:46;;;;;;;37.25;18.05;;;0.10;99.90;;;;;;5095166;28;20053;-75
2020/12/30 04:01:11;;;;;;;44.85;19.00;;;0.20;99.90;;;;;;5094629;28;20024;-75
2020/12/30 04:03:37;;;;;;;41.10;18.40;;;0.20;99.90;;;;;;5095003;28;20158;-75
2020/12/30 04:06:02;;;;;;;38.78;19.83;;;0.20;99.90;;;;;;5095017;28;20099;-75
2020/12/30 04:08:28;;;;;;;37.38;19.20;;;0.30;99.90;;;;;;5094688;28;20105;-75
2020/12/30 04:10:53;;;;;;;42.20;18.92;;;0.30;99.90;;;;;;5094392;28;20032;-75
2020/12/30 04:13:19;;;;;;;39.85;18.90;;;0.50;99.90;;;;;;5094894;28;20028;-76
2020/12/30 04:15:46;;;;;;;39.92;18.55;;;0.90;99.90;;;;;;5093357;28;20035;-75
2020/12/30 04:18:11;;;;;;;36.42;17.55;;;0.80;99.90;;;;;;5094586;28;20031;-75
2020/12/30 04:20:37;;;;;;;39.50;18.83;;;0.80;99.90;;;;;;5093648;28;20024;-75
2020/12/30 04:23:03;;;;;;;36.13;17.33;;;0.70;99.90;;;;;;5093249;28;20028;-74
2020/12/30 04:25:28;;;;;;;33.47;16.63;;;0.60;99.90;;;;;;5094680;28;20028;-75
2020/12/30 04:27:54;;;;;;;32.22;17.75;;;0.60;99.90;;;;;;5094108;28;20028;-75
2020/12/30 04:30:20;;;;;;;39.80;18.50;;;0.60;99.90;;;;;;5094345;28;20110;-75
2020/12/30 04:32:45;;;;;;;43.08;19.38;;;0.80;99.90;;;;;;5094613;28;20032;-76
2020/12/30 04:35:11;;;;;;;36.72;18.38;;;0.90;99.90;;;;;;5092723;28;20111;-75
2020/12/30 04:37:36;;;;;;;38.08;18.55;;;1.10;99.90;;;;;;5094199;28;20028;-75
2020/12/30 04:40:03;;;;;;;41.72;18.30;;;1.30;99.90;;;;;;5093087;28;20048;-75
2020/12/30 04:42:33;;;;;;;36.80;17.77;;;1.40;99.90;;;;;;5094044;28;20028;-75
2020/12/30 04:45:02;;;;;;;33.58;16.92;;;1.50;99.90;;;;;;5093846;28;20051;-75
2020/12/30 04:47:29;;;;;;;32.67;16.42;;;1.60;99.90;;;;;;5094399;28;20020;-76
2020/12/30 04:49:55;;;;;;;28.55;15.98;;;1.60;99.90;;;;;;5094330;28;20026;-75
2020/12/30 04:52:21;;;;;;;29.27;16.23;;;1.50;99.90;;;;;;5094046;28;20111;-75
2020/12/30 04:54:50;;;;;;;28.48;15.85;;;1.50;99.90;;;;;;5092455;28;20039;-75
2020/12/30 04:57:23;;;;;;;33.90;17.60;;;1.50;99.90;;;;;;5094253;28;20397;-75
2020/12/30 04:59:52;;;;;;;31.05;16.23;;;1.50;99.90;;;;;;5094171;28;20099;-76
2020/12/30 05:02:26;;;;;;;29.77;16.83;;;1.50;99.90;;;;;;5093816;28;20373;-75
2020/12/30 05:04:52;;;;;;;30.58;15.55;;;1.40;99.90;;;;;;5094144;28;20024;-75
2020/12/30 05:07:18;;;;;;;32.28;16.85;;;1.30;99.90;;;;;;5093551;28;20027;-75
2020/12/30 05:09:44;;;;;;;32.60;16.52;;;1.20;99.90;;;;;;5093821;28;20055;-75
2020/12/30 05:12:12;;;;;;;31.55;17.20;;;1.20;99.90;;;;;;5093069;28;20059;-75
2020/12/30 05:14:38;;;;;;;30.88;17.50;;;1.20;99.90;;;;;;5075604;28;20032;-75
2020/12/30 05:17:06;;;;;;;34.40;17.52;;;1.10;99.90;;;;;;5092576;28;20453;-75
2020/12/30 05:19:31;;;;;;;32.88;16.63;;;1.00;99.90;;;;;;5094046;28;20414;-74
2020/12/30 05:21:57;;;;;;;40.78;18.52;;;0.90;99.90;;;;;;5093872;28;20062;-75
2020/12/30 05:24:23;;;;;;;36.70;18.00;;;0.90;99.90;;;;;;5092798;28;20020;-75
2020/12/30 05:26:48;;;;;;;35.33;17.27;;;0.80;99.90;;;;;;5093654;28;20105;-75
2020/12/30 05:29:15;;;;;;;34.63;18.08;;;0.80;99.90;;;;;;5093926;28;20025;-75
2020/12/30 05:31:41;;;;;;;36.13;18.58;;;0.90;99.90;;;;;;5093890;28;20030;-75
2020/12/30 05:34:07;;;;;;;41.25;19.30;;;0.90;99.90;;;;;;5093848;28;20047;-75
2020/12/30 05:36:33;;;;;;;37.53;18.42;;;0.90;99.90;;;;;;5092048;28;20023;-75
2020/12/30 05:38:59;;;;;;;43.22;21.48;;;1.00;99.90;;;;;;5093798;28;20024;-75
2020/12/30 05:41:24;;;;;;;42.83;21.42;;;1.20;99.90;;;;;;5093055;28;20059;-75
2020/12/30 05:43:50;;;;;;;41.40;20.38;;;1.30;99.90;;;;;;5093443;28;20028;-75
2020/12/30 05:46:26;;;;;;;41.85;20.23;;;1.40;99.90;;;;;;5093455;28;20158;-74
2020/12/30 05:48:52;;;;;;;42.45;20.25;;;1.40;99.90;;;;;;5093742;28;20016;-75
2020/12/30 05:51:25;;;;;;;40.67;20.80;;;1.50;99.90;;;;;;5093345;28;20016;-75
2020/12/30 05:54:08;;;;;;;43.95;20.08;;;1.60;99.90;;;;;;5097632;28;20031;-75
2020/12/30 05:56:35;;;;;;;39.58;20.38;;;1.70;99.90;;;;;;5096163;28;20031;-75
2020/12/30 05:59:03;;;;;;;42.75;21.00;;;1.80;99.90;;;;;;5097548;28;20020;-75
2020/12/30 06:01:28;;;;;;;47.63;21.55;;;1.80;99.90;;;;;;5097389;28;20017;-75
2020/12/30 06:03:55;;;;;;;38.60;20.63;;;2.00;99.90;;;;;;5095980;28;20020;-75
2020/12/30 06:06:21;;;;;;;42.55;21.17;;;2.00;99.90;;;;;;5095824;28;20047;-75
2020/12/30 06:08:49;;;;;;;40.47;20.10;;;2.10;99.90;;;;;;5097337;28;20445;-75
2020/12/30 06:11:23;;;;;;;46.80;22.00;;;2.10;99.90;;;;;;5097322;28;20093;-75
2020/12/30 06:13:52;;;;;;;46.67;21.35;;;2.10;99.90;;;;;;5096235;28;20335;-75
2020/12/30 06:16:22;;;;;;;41.33;20.63;;;2.20;99.90;;;;;;5097187;28;20107;-75
2020/12/30 06:18:48;;;;;;;43.17;21.10;;;2.20;99.90;;;;;;5097179;28;20056;-75
2020/12/30 06:21:16;;;;;;;44.55;21.08;;;2.20;99.90;;;;;;5095359;28;20408;-75
2020/12/30 06:23:43;;;;;;;42.65;20.27;;;2.20;99.90;;;;;;5096999;28;20097;-75
2020/12/30 06:26:17;;;;;;;37.33;18.95;;;2.40;99.90;;;;;;5096679;28;20016;-75
2020/12/30 06:28:48;;;;;;;38.50;20.30;;;2.30;99.90;;;;;;5096948;28;20052;-75
2020/12/30 06:31:15;;;;;;;41.22;20.40;;;2.40;99.90;;;;;;5096950;28;20518;-75
2020/12/30 06:33:41;;;;;;;40.05;20.20;;;2.40;99.90;;;;;;5096887;28;20032;-75
2020/12/30 06:36:06;;;;;;;44.40;21.40;;;2.40;99.90;;;;;;5096253;28;20024;-75
2020/12/30 06:38:32;;;;;;;42.50;21.75;;;2.40;99.90;;;;;;5096503;28;20448;-75
2020/12/30 06:41:00;;;;;;;42.28;21.15;;;2.40;99.90;;;;;;5095960;28;20101;-75
2020/12/30 06:43:43;;;;;;;39.38;20.85;;;2.50;99.90;;;;;;5095414;28;20024;-75
2020/12/30 06:46:11;;;;;;;39.05;20.63;;;2.50;99.90;;;;;;5096608;28;20012;-75
2020/12/30 06:48:58;;;;;;;41.70;21.35;;;2.60;99.90;;;;;;5096534;28;20449;-75
2020/12/30 06:51:26;;;;;;;44.25;21.77;;;2.60;99.90;;;;;;5095907;28;20024;-75
2020/12/30 06:53:53;;;;;;;41.95;20.88;;;2.60;99.90;;;;;;5096150;28;20020;-75
2020/12/30 06:56:40;;;;;;;44.28;21.15;;;2.60;99.90;;;;;;5096314;28;20023;-76
2020/12/30 06:59:07;;;;;;;41.75;20.25;;;2.70;99.90;;;;;;5094826;28;20028;-75
2020/12/30 07:01:59;;;;;;;46.78;21.23;;;2.70;99.90;;;;;;5096218;28;20053;-75
2020/12/30 07:04:26;;;;;;;41.30;19.92;;;2.70;99.90;;;;;;5094887;28;20021;-75
2020/12/30 07:06:53;;;;;;;39.63;20.08;;;2.80;99.90;;;;;;5094797;28;20027;-75
2020/12/30 07:09:34;;;;;;;40.97;19.95;;;2.90;99.90;;;;;;5094588;28;20028;-75
2020/12/30 07:12:04;;;;;;;36.55;19.75;;;2.80;99.90;;;;;;5094621;28;20548;-75
2020/12/30 07:14:31;;;;;;;38.78;20.25;;;2.90;99.90;;;;;;5094927;28;20110;-75
2020/12/30 07:16:59;;;;;;;42.60;21.17;;;2.90;99.90;;;;;;5095440;28;20023;-75
2020/12/30 07:19:33;;;;;;;35.42;17.77;;;2.90;99.90;;;;;;5095686;28;20457;-75
2020/12/30 07:22:07;;;;;;;39.58;19.92;;;3.00;99.90;;;;;;5094381;28;20508;-75
2020/12/30 07:27:21;;;;;;;49.87;28.43;;;3.00;99.90;;;;;;5110968;27;20444;-72
2020/12/30 07:29:48;;;;;;;42.67;22.38;;;3.00;99.90;;;;;;5110601;28;20258;-72
2020/12/30 07:32:15;;;;;;;40.85;20.92;;;3.00;99.90;;;;;;5110476;28;20047;-72
2020/12/30 07:34:42;;;;;;;40.33;21.52;;;3.10;99.90;;;;;;5111882;28;20077;-72
2020/12/30 07:37:08;;;;;;;41.22;21.35;;;3.10;99.90;;;;;;5111839;28;20031;-72
2020/12/30 07:39:38;;;;;;;43.38;20.38;;;3.10;99.90;;;;;;5093216;28;20115;-72
2020/12/30 07:42:05;;;;;;;41.88;21.40;;;3.10;99.90;;;;;;5111731;28;20020;-72
2020/12/30 07:44:31;;;;;;;44.63;22.50;;;3.10;99.90;;;;;;5110479;28;20028;-72
2020/12/30 07:47:01;;;;;;;48.15;23.98;;;3.10;99.90;;;;;;5111254;28;20028;-72
2020/12/30 07:49:27;;;;;;;41.95;23.08;;;3.10;99.90;;;;;;5110405;28;20028;-72
2020/12/30 07:51:56;;;;;;;45.20;22.00;;;3.00;99.90;;;;;;5109751;28;20453;-72
2020/12/30 07:54:23;;;;;;;43.65;22.50;;;3.00;99.90;;;;;;5111594;28;20032;-72
2020/12/30 07:56:50;;;;;;;40.33;22.35;;;3.00;99.90;;;;;;5109656;28;20107;-72
2020/12/30 07:59:24;;;;;;;43.10;21.67;;;3.10;99.90;;;;;;5111443;28;20529;-72
2020/12/30 08:01:56;;;;;;;47.25;22.75;;;3.10;99.90;;;;;;5110828;28;20078;-72
2020/12/30 08:04:22;;;;;;;42.53;21.55;;;3.20;99.90;;;;;;5092766;28;20027;-72
2020/12/30 08:06:47;;;;;;;45.40;21.38;;;3.20;99.90;;;;;;5110010;28;20418;-72
2020/12/30 08:09:14;;;;;;;41.92;22.48;;;3.30;99.90;;;;;;5109394;28;20028;-72
2020/12/30 08:11:50;;;;;;;42.35;21.75;;;3.30;99.90;;;;;;5110891;28;20023;-72
2020/12/30 08:14:16;;;;;;;44.95;22.27;;;3.20;99.90;;;;;;5092745;28;20016;-72
2020/12/30 08:22:20;;;;;;;43.08;21.45;;;3.40;99.90;;;;;;5092147;28;20422;-77
2020/12/30 08:24:48;;;;;;;44.28;21.55;;;3.50;99.90;;;;;;5091592;28;20039;-75
2020/12/30 08:27:15;;;;;;;39.15;21.08;;;3.50;99.90;;;;;;5091188;28;20050;-75
2020/12/30 08:29:43;;;;;;;44.08;20.63;;;3.50;99.90;;;;;;5089646;28;20024;-75
2020/12/30 08:32:33;;;;;;;45.92;23.48;;;3.50;99.90;;;;;;5091493;28;20024;-75
2020/12/30 08:37:45;;;;;;;40.95;20.60;;;3.60;99.90;;;;;;5112245;27;20404;-71
2020/12/30 08:40:16;;;;;;;42.67;21.30;;;3.60;99.90;;;;;;5110444;28;20020;-71
2020/12/30 08:43:21;;;;;;;40.70;21.60;;;3.70;99.90;;;;;;5111888;28;20020;-71
2020/12/30 08:45:53;;;;;;;41.83;21.42;;;3.70;99.90;;;;;;5111248;28;20069;-72
2020/12/30 08:48:20;;;;;;;40.03;20.73;;;3.70;99.90;;;;;;5111571;28;20024;-72
2020/12/30 08:50:47;;;;;;;42.40;21.55;;;3.70;99.90;;;;;;5111511;28;20062;-71
2020/12/30 08:53:13;;;;;;;44.20;22.48;;;3.70;99.90;;;;;;5111756;28;20020;-72
2020/12/30 08:55:39;;;;;;;40.33;21.25;;;3.70;99.90;;;;;;5110144;28;20476;-72
2020/12/30 08:58:05;;;;;;;40.78;22.08;;;3.70;99.90;;;;;;5111642;28;20028;-71
2020/12/30 09:00:36;;;;;;;45.30;22.67;;;3.70;99.90;;;;;;5110011;28;20426;-71
2020/12/30 09:03:18;;;;;;;43.78;21.63;;;3.70;99.90;;;;;;5110356;28;20048;-71
2020/12/30 09:05:52;;;;;;;44.88;22.90;;;3.70;99.90;;;;;;5111309;28;20376;-71
2020/12/30 09:08:20;;;;;;;44.30;22.63;;;3.70;99.90;;;;;;5109967;28;20357;-71
2020/12/30 09:10:47;;;;;;;42.42;22.52;;;3.70;99.90;;;;;;5093165;28;20388;-72
2020/12/30 09:13:16;;;;;;;42.47;21.98;;;3.80;99.90;;;;;;5111333;28;20023;-71
2020/12/30 09:15:43;;;;;;;45.75;22.23;;;3.80;99.90;;;;;;5109759;28;20031;-72
2020/12/30 09:18:12;;;;;;;46.28;22.77;;;3.80;99.90;;;;;;5110676;28;20384;-71
2020/12/30 09:20:38;;;;;;;46.80;22.45;;;3.80;99.90;;;;;;5111185;28;20449;-72
2020/12/30 09:23:04;;;;;;;43.83;22.95;;;3.90;99.90;;;;;;5110845;28;20027;-72
2020/12/30 09:25:35;;;;;;;54.97;23.52;;;3.90;99.90;;;;;;5110769;28;20069;-71
2020/12/30 09:28:00;;;;;;;43.25;22.52;;;3.90;99.90;;;;;;5111185;28;20466;-72
2020/12/30 09:30:27;;;;;;;41.03;21.80;;;3.90;99.90;;;;;;5110991;28;20027;-71
2020/12/30 09:32:55;;;;;;;48.60;22.60;;;4.00;99.90;;;;;;5109255;28;20024;-71
2020/12/30 09:35:29;;;;;;;48.05;23.73;;;4.00;99.90;;;;;;5109720;28;20028;-71
2020/12/30 09:37:57;;;;;;;49.35;22.98;;;4.00;99.90;;;;;;5109438;28;20048;-71
2020/12/30 09:40:23;;;;;;;48.05;23.17;;;4.00;99.90;;;;;;5110907;28;20047;-72
2020/12/30 09:42:49;;;;;;;45.47;23.30;;;4.00;99.90;;;;;;5111867;28;20457;-72
2020/12/30 09:45:16;;;;;;;46.30;22.48;;;4.10;99.90;;;;;;5110735;28;20019;-71
2020/12/30 09:47:42;;;;;;;47.63;23.05;;;4.20;99.90;;;;;;5103621;28;20016;-72
2020/12/30 09:50:11;;;;;;;46.58;22.80;;;4.10;99.90;;;;;;5095363;28;20121;-72
2020/12/30 09:52:38;;;;;;;43.22;21.73;;;4.10;99.90;;;;;;5097594;28;20023;-71
2020/12/30 09:55:05;;;;;;;47.03;22.83;;;4.20;99.90;;;;;;5096987;28;20107;-71
2020/12/30 09:57:32;;;;;;;41.67;21.90;;;4.20;99.90;;;;;;5096625;28;20024;-72
2020/12/30 09:59:59;;;;;;;41.72;21.85;;;4.30;99.90;;;;;;5096292;28;20453;-71
2020/12/30 10:02:25;;;;;;;46.92;22.70;;;4.40;99.90;;;;;;5095365;28;20020;-72
2020/12/30 10:04:51;;;;;;;45.20;23.05;;;4.40;99.90;;;;;;5095322;28;20094;-72
2020/12/30 10:07:17;;;;;;;46.80;22.98;;;4.40;99.90;;;;;;5095186;28;20031;-71
2020/12/30 10:09:42;;;;;;;42.75;21.90;;;4.50;99.90;;;;;;5094827;28;20556;-72
2020/12/30 10:12:08;;;;;;;41.67;21.33;;;4.60;99.90;;;;;;5096620;28;20030;-72
2020/12/30 10:14:33;;;;;;;44.45;21.80;;;4.60;99.90;;;;;;5096539;28;20028;-72
2020/12/30 10:16:59;;;;;;;40.33;20.08;;;4.60;99.90;;;;;;5096430;28;20035;-72
2020/12/30 10:19:24;;;;;;;42.38;20.83;;;4.70;99.90;;;;;;5096479;28;20028;-71
2020/12/30 10:21:50;;;;;;;42.53;20.60;;;4.60;99.90;;;;;;5095243;28;20427;-71
2020/12/30 10:24:16;;;;;;;41.20;20.85;;;4.70;99.90;;;;;;5096383;28;20035;-71
2020/12/30 10:26:41;;;;;;;37.03;19.50;;;4.70;99.90;;;;;;5095706;28;20051;-71
2020/12/30 10:29:07;;;;;;;41.83;20.80;;;4.80;99.90;;;;;;5095933;28;20095;-71
2020/12/30 10:31:32;;;;;;;39.55;20.13;;;4.90;99.90;;;;;;5095993;28;20024;-71
2020/12/30 10:33:58;;;;;;;37.40;19.15;;;4.90;99.90;;;;;;5079044;28;20077;-71
2020/12/30 10:36:28;;;;;;;41.67;19.35;;;4.90;99.90;;;;;;5095980;28;20153;-72
2020/12/30 10:38:55;;;;;;;36.35;19.75;;;5.00;99.90;;;;;;5095630;28;20021;-72
2020/12/30 10:41:21;;;;;;;37.85;19.38;;;5.10;99.90;;;;;;5094633;28;20016;-72
2020/12/30 10:43:47;;;;;;;35.60;18.80;;;5.10;99.90;;;;;;5095511;28;20027;-72
2020/12/30 10:46:15;;;;;;;35.83;17.63;;;5.00;99.90;;;;;;5095958;28;20457;-72
2020/12/30 10:48:44;;;;;;;34.15;17.30;;;5.00;99.90;;;;;;5095665;28;20023;-71
2020/12/30 10:51:12;;;;;;;37.38;18.55;;;5.00;99.90;;;;;;5095407;28;20498;-71
2020/12/30 10:53:38;;;;;;;36.42;19.63;;;5.10;99.90;;;;;;5077363;28;20035;-72
2020/12/30 10:56:03;;;;;;;34.47;18.35;;;5.10;99.90;;;;;;5093833;28;20024;-72
2020/12/30 10:58:29;;;;;;;37.45;17.67;;;5.20;99.90;;;;;;5094133;28;20103;-71
2020/12/30 11:00:56;;;;;;;33.78;19.13;;;5.10;99.90;;;;;;5094843;28;20024;-71
2020/12/30 11:03:21;;;;;;;35.58;18.02;;;5.10;99.90;;;;;;5094347;28;20445;-72
2020/12/30 11:05:47;;;;;;;39.22;17.35;;;5.10;99.90;;;;;;5093746;28;20063;-71
2020/12/30 11:08:13;;;;;;;38.08;18.17;;;5.10;99.90;;;;;;5095552;28;20032;-71
2020/12/30 11:10:39;;;;;;;37.95;18.77;;;5.10;99.90;;;;;;5095395;28;20028;-71
2020/12/30 11:13:04;;;;;;;32.55;17.77;;;5.10;99.90;;;;;;5094842;28;20020;-72
2020/12/30 11:15:30;;;;;;;29.52;15.00;;;5.10;99.90;;;;;;5095249;28;20115;-71
2020/12/30 11:17:55;;;;;;;33.42;17.50;;;5.10;99.90;;;;;;5094715;28;20108;-71
2020/12/30 11:20:21;;;;;;;32.33;17.88;;;5.10;99.90;;;;;;5095174;28;20031;-72
2020/12/30 11:22:46;;;;;;;31.13;16.02;;;5.00;99.90;;;;;;5095183;28;20031;-71
2020/12/30 11:25:12;;;;;;;32.88;17.13;;;5.00;99.90;;;;;;5093713;28;20092;-71
2020/12/30 11:27:37;;;;;;;33.30;16.98;;;5.00;99.90;;;;;;5093971;28;20047;-71
2020/12/30 11:30:03;;;;;;;32.78;16.15;;;5.10;99.90;;;;;;5076565;28;20024;-71
2020/12/30 11:32:29;;;;;;;30.83;16.58;;;5.10;99.90;;;;;;5094687;28;20024;-71
2020/12/30 11:34:54;;;;;;;32.85;17.50;;;5.00;99.90;;;;;;5076954;28;20046;-71
2020/12/30 11:37:20;;;;;;;34.65;18.95;;;4.90;99.90;;;;;;5092886;28;20094;-72
2020/12/30 11:39:46;;;;;;;34.72;17.65;;;4.80;99.90;;;;;;5095529;28;20024;-71
2020/12/30 11:42:11;;;;;;;32.55;17.67;;;4.80;99.90;;;;;;5094478;28;20024;-71
2020/12/30 11:44:37;;;;;;;34.33;18.05;;;4.70;99.90;;;;;;5093423;28;20096;-71
2020/12/30 11:47:02;;;;;;;33.78;17.58;;;4.90;99.90;;;;;;5093534;28;20035;-72
2020/12/30 11:49:28;;;;;;;33.92;16.52;;;4.90;99.90;;;;;;5075959;28;20535;-72
2020/12/30 11:51:53;;;;;;;33.80;17.48;;;4.90;99.90;;;;;;5093231;28;20106;-71
2020/12/30 11:54:19;;;;;;;38.53;18.02;;;5.00;99.90;;;;;;5076006;28;20458;-72
2020/12/30 11:56:45;;;;;;;34.50;17.85;;;4.90;99.90;;;;;;5094557;28;20020;-71
2020/12/30 11:59:10;;;;;;;34.38;18.77;;;4.90;99.90;;;;;;5092861;28;20020;-71
2020/12/30 12:01:36;;;;;;;33.85;17.85;;;4.90;99.90;;;;;;5075881;28;20077;-72
2020/12/30 12:04:02;;;;;;;31.73;17.67;;;4.90;99.90;;;;;;5094460;28;20413;-72
2020/12/30 12:06:28;;;;;;;30.52;17.13;;;4.80;99.90;;;;;;5093041;28;20016;-72
2020/12/30 12:08:54;;;;;;;34.03;17.50;;;4.80;99.90;;;;;;5099112;28;20019;-72
2020/12/30 12:11:19;;;;;;;36.17;20.73;;;4.90;99.90;;;;;;5092291;28;20363;-72
2020/12/30 12:13:45;;;;;;;37.10;19.95;;;4.90;99.90;;;;;;5094427;28;20070;-72
2020/12/30 12:16:12;;;;;;;38.63;19.40;;;4.90;99.90;;;;;;5092490;28;20025;-71
2020/12/30 12:18:37;;;;;;;32.92;19.48;;;4.90;99.90;;;;;;5094297;28;20091;-72
2020/12/30 12:21:04;;;;;;;34.55;18.42;;;5.10;99.90;;;;;;5094354;28;20044;-72
2020/12/30 12:23:29;;;;;;;36.22;19.23;;;5.10;99.90;;;;;;5093990;28;20020;-72
2020/12/30 12:25:55;;;;;;;39.53;19.52;;;5.00;99.90;;;;;;5094225;28;20031;-72
2020/12/30 12:28:57;;;;;;;35.13;18.52;;;5.10;99.90;;;;;;5094247;28;20413;-72
2020/12/30 12:31:22;;;;;;;38.33;19.02;;;5.10;99.90;;;;;;5094184;28;20051;-72
2020/12/30 12:33:48;;;;;;;36.58;20.02;;;5.00;99.90;;;;;;5092715;28;20109;-72
2020/12/30 12:36:14;;;;;;;35.08;18.63;;;5.00;99.90;;;;;;5092545;28;20499;-72
2020/12/30 12:38:40;;;;;;;40.03;18.65;;;5.00;99.90;;;;;;5094104;28;20031;-72
2020/12/30 12:41:06;;;;;;;35.10;18.80;;;5.00;99.90;;;;;;5092500;28;20038;-72
2020/12/30 12:43:32;;;;;;;35.92;18.65;;;5.00;99.90;;;;;;5094097;28;20453;-72
2020/12/30 12:45:57;;;;;;;39.47;20.42;;;5.00;99.90;;;;;;5092337;28;20089;-72